Time;durP1;ratioP1;P1;durP2;ratioP2;P2;SDS_P1;SDS_P2;PMS_P1;PMS_P2;Temp;Humidity;BMP_temperature;BMP_pressure;BME280_temperature;BME280_humidity;BME280_pressure;Samples;Min_cycle;Max_cycle;Signal;HPM_P1;HPM_P2
2024/03/27 07:40:27;;;;;;;10.27;3.13;;;;;;;8.65;85.71;93550.91;2099187;27;20566;-73
2024/03/27 07:41:27;;;;;;;10.57;3.33;;;;;;;8.85;85.25;93540.56;2102253;28;20210;-73
2024/03/27 07:42:28;;;;;;;17.67;3.90;;;;;;;9.00;84.05;93539.22;2093488;28;20826;-73
2024/03/27 07:44:47;;;;;;;11.75;4.20;;;;;;;9.08;83.63;93538.56;2099464;27;20569;-71
2024/03/27 07:48:41;;;;;;;7.30;3.05;;;;;;;9.22;82.24;93545.13;2089830;27;21110;-71
2024/03/27 07:51:04;;;;;;;13.18;3.90;;;;;;;9.31;82.59;93546.94;2107190;27;20549;-72
2024/03/27 07:52:05;;;;;;;8.83;3.10;;;;;;;9.52;82.08;93546.78;2097242;28;20764;-72
2024/03/27 07:53:32;;;;;;;13.02;3.90;;;;;;;9.45;81.30;93543.09;2084675;28;20576;-72
2024/03/27 07:59:38;;;;;;;16.70;3.70;;;;;;;9.52;80.69;93538.16;2090205;27;20562;-72
2024/03/27 08:03:22;;;;;;;11.32;4.00;;;;;;;9.49;81.19;93534.03;2076202;27;20557;-73
2024/03/27 08:05:31;;;;;;;15.13;3.55;;;;;;;9.66;80.76;93531.69;2083707;28;20570;-60
2024/03/27 08:06:31;;;;;;;14.53;3.93;;;;;;;9.68;80.93;93527.97;2079509;28;20212;-60
2024/03/27 08:08:34;;;;;;;10.68;3.00;;;;;;;9.54;81.13;93508.38;2093035;27;20555;-60
2024/03/27 08:09:34;;;;;;;9.83;3.53;;;;;;;9.84;80.54;93522.22;2104910;28;20238;-72
2024/03/27 08:10:35;;;;;;;6.40;2.87;;;;;;;9.86;80.40;93514.25;2095685;28;20576;-72
2024/03/27 08:11:35;;;;;;;8.80;3.80;;;;;;;10.04;80.01;93514.34;2079384;28;20276;-71
2024/03/27 08:12:36;;;;;;;7.07;3.27;;;;;;;10.17;79.80;93519.22;2080802;28;20216;-72
2024/03/27 08:13:38;;;;;;;9.50;3.73;;;;;;;10.32;78.83;93517.00;2062016;28;20713;-72
2024/03/27 08:14:38;;;;;;;7.75;3.05;;;;;;;10.30;78.94;93522.34;2058617;28;20617;-74
2024/03/27 08:15:38;;;;;;;10.23;4.03;;;;;;;10.51;78.21;93526.53;2059942;28;20214;-75
2024/03/27 08:16:39;;;;;;;10.87;3.60;;;;;;;10.74;77.60;93530.44;2065755;28;20215;-74
2024/03/27 08:17:40;;;;;;;12.35;3.40;;;;;;;10.86;77.00;93525.81;2065694;28;20201;-74
2024/03/27 08:18:43;;;;;;;7.00;3.23;;;;;;;11.24;76.07;93529.13;2066683;28;20330;-74
2024/03/27 08:19:43;;;;;;;9.45;3.45;;;;;;;11.38;74.49;93524.38;2065838;28;20208;-74
2024/03/27 08:20:54;;;;;;;7.20;3.10;;;;;;;11.96;73.62;93532.69;2067226;28;20236;-74
2024/03/27 08:21:54;;;;;;;10.02;4.32;;;;;;;12.31;72.87;93530.97;2065199;28;20204;-74
2024/03/27 08:22:55;;;;;;;15.50;3.63;;;;;;;12.16;71.97;93534.13;2062818;28;20253;-74
2024/03/27 08:23:58;;;;;;;7.30;3.67;;;;;;;11.86;73.00;93530.13;2074333;28;20646;-74
2024/03/27 08:24:58;;;;;;;6.68;3.10;;;;;;;11.96;72.24;93535.31;2064475;28;20205;-74
2024/03/27 08:25:59;;;;;;;10.80;3.13;;;;;;;11.81;72.72;93532.38;2062435;28;20202;-75
2024/03/27 08:27:01;;;;;;;8.03;3.77;;;;;;;11.54;73.21;93531.53;2056734;28;20213;-74
2024/03/27 08:28:01;;;;;;;6.57;2.85;;;;;;;11.43;73.99;93535.19;2063733;28;20878;-74
2024/03/27 08:29:03;;;;;;;13.37;4.00;;;;;;;11.43;73.69;93535.19;2063464;28;20620;-74
2024/03/27 08:30:04;;;;;;;11.50;3.42;;;;;;;11.79;73.32;93539.59;2062807;28;20210;-74
2024/03/27 08:31:05;;;;;;;12.27;2.95;;;;;;;11.83;73.21;93536.50;2066024;28;20210;-74
2024/03/27 08:32:05;;;;;;;11.77;3.43;;;;;;;12.36;72.26;93534.75;2065066;28;20210;-74
2024/03/27 08:33:06;;;;;;;6.63;3.30;;;;;;;12.42;71.47;93530.69;2057859;28;20225;-74
2024/03/27 08:34:10;;;;;;;9.20;4.80;;;;;;;12.31;70.79;93544.03;2062999;28;20221;-72
2024/03/27 08:35:10;;;;;;;35.42;16.40;;;;;;;12.27;71.11;93545.34;2075238;28;20854;-73
2024/03/27 08:36:11;;;;;;;18.93;7.30;;;;;;;12.11;71.13;93543.44;2067336;28;20818;-73
2024/03/27 08:37:11;;;;;;;12.00;4.70;;;;;;;12.15;71.28;93539.53;2068761;28;20715;-74
2024/03/27 08:38:12;;;;;;;8.13;3.97;;;;;;;12.65;69.84;93545.88;2065680;28;20311;-73
2024/03/27 08:39:12;;;;;;;6.63;3.20;;;;;;;12.89;69.54;93542.53;2074875;28;20276;-73
2024/03/27 08:40:13;;;;;;;10.87;3.73;;;;;;;12.87;69.68;93542.69;2074860;28;20201;-73
2024/03/27 08:41:14;;;;;;;11.30;4.80;;;;;;;13.03;68.96;93543.72;2064958;28;20648;-72
2024/03/27 08:42:14;;;;;;;9.57;3.50;;;;;;;13.08;69.24;93533.56;2064311;28;20418;-72
2024/03/27 08:43:15;;;;;;;5.60;3.23;;;;;;;13.13;68.64;93544.38;2060252;28;20218;-72
2024/03/27 08:44:16;;;;;;;9.43;3.20;;;;;;;12.77;69.87;93549.81;2060144;28;20452;-72
2024/03/27 08:45:16;;;;;;;5.82;3.38;;;;;;;12.80;69.87;93554.75;2052694;28;20207;-73
2024/03/27 08:46:17;;;;;;;18.43;2.97;;;;;;;13.27;68.35;93549.97;2051324;28;20663;-72
2024/03/27 08:47:17;;;;;;;7.93;3.30;;;;;;;13.55;67.56;93554.00;2056657;28;20219;-72
2024/03/27 08:48:18;;;;;;;6.87;3.13;;;;;;;13.50;67.41;93553.66;2038525;28;20561;-73
2024/03/27 08:49:18;;;;;;;7.50;2.60;;;;;;;13.22;68.81;93555.72;2056443;28;20214;-73
2024/03/27 08:50:19;;;;;;;8.13;3.27;;;;;;;12.89;69.26;93559.03;2060350;28;20669;-73
2024/03/27 08:51:19;;;;;;;7.50;3.00;;;;;;;12.82;69.49;93565.88;2055156;28;20396;-73
2024/03/27 08:52:20;;;;;;;14.20;3.43;;;;;;;13.07;68.99;93564.16;2055606;28;20246;-73
2024/03/27 08:53:20;;;;;;;13.90;3.30;;;;;;;12.94;69.33;93565.59;2055948;28;20735;-73
2024/03/27 08:54:21;;;;;;;10.27;3.60;;;;;;;12.91;69.73;93571.97;2073484;28;20311;-72
2024/03/27 08:55:22;;;;;;;6.35;2.78;;;;;;;13.36;68.87;93573.44;2073606;28;20209;-73
2024/03/27 08:56:22;;;;;;;10.13;3.37;;;;;;;13.33;68.33;93576.38;2067627;28;20640;-73
2024/03/27 08:57:23;;;;;;;13.03;3.43;;;;;;;13.92;67.50;93583.38;2076091;28;20216;-73
2024/03/27 08:58:24;;;;;;;8.27;3.87;;;;;;;14.01;67.23;93587.63;2065720;28;20221;-72
2024/03/27 08:59:24;;;;;;;10.67;3.30;;;;;;;14.18;66.69;93593.69;2065936;28;20403;-72
2024/03/27 09:00:25;;;;;;;9.30;2.97;;;;;;;14.38;66.25;93595.97;2060390;28;20448;-72
2024/03/27 09:01:25;;;;;;;5.37;3.03;;;;;;;14.70;65.58;93594.28;2063338;28;20214;-73
2024/03/27 09:02:26;;;;;;;7.03;2.87;;;;;;;14.22;66.33;93594.19;2064059;28;20237;-71
2024/03/27 09:03:26;;;;;;;6.77;3.40;;;;;;;14.03;66.56;93593.53;2074326;28;20210;-73
2024/03/27 09:04:27;;;;;;;11.90;3.43;;;;;;;14.64;65.46;93594.91;2065975;28;20214;-73
2024/03/27 09:05:28;;;;;;;6.30;3.27;;;;;;;14.36;65.16;93588.25;2065199;28;20363;-73
2024/03/27 09:06:28;;;;;;;6.77;3.67;;;;;;;14.19;65.82;93599.75;2064945;28;20400;-72
2024/03/27 09:07:29;;;;;;;10.93;3.27;;;;;;;13.90;66.29;93608.91;2052795;28;20443;-72
2024/03/27 09:08:30;;;;;;;16.33;4.00;;;;;;;14.27;66.06;93606.78;2054502;28;20247;-73
2024/03/27 09:09:30;;;;;;;8.83;3.90;;;;;;;14.55;65.29;93604.66;2068960;28;20536;-73
2024/03/27 09:10:30;;;;;;;5.57;3.23;;;;;;;14.46;65.66;93603.84;2072740;28;20742;-73
2024/03/27 09:11:31;;;;;;;8.90;3.50;;;;;;;14.27;65.53;93612.88;2062755;28;20399;-73
2024/03/27 09:12:32;;;;;;;17.13;4.10;;;;;;;14.42;65.09;93605.13;2064313;28;20516;-72
2024/03/27 09:13:33;;;;;;;7.13;3.07;;;;;;;14.33;65.18;93600.88;2065540;28;20234;-73
2024/03/27 09:14:33;;;;;;;12.17;3.80;;;;;;;14.03;65.95;93590.09;2066252;28;20205;-73
2024/03/27 09:15:34;;;;;;;7.83;3.13;;;;;;;14.82;65.15;93598.19;2064233;28;20523;-72
2024/03/27 09:16:34;;;;;;;8.77;3.20;;;;;;;14.57;64.36;93600.03;2064363;28;20296;-73
2024/03/27 09:17:35;;;;;;;6.83;3.13;;;;;;;14.45;65.25;93606.59;2072133;28;20671;-73
2024/03/27 09:18:35;;;;;;;5.27;3.07;;;;;;;14.51;65.14;93604.16;2062353;28;20211;-73
2024/03/27 09:19:37;;;;;;;16.63;4.23;;;;;;;14.33;65.47;93595.63;2059100;28;20595;-73
2024/03/27 09:20:37;;;;;;;9.13;3.10;;;;;;;13.86;66.25;93600.59;2061873;28;20214;-73
2024/03/27 09:21:38;;;;;;;12.90;3.73;;;;;;;13.47;66.82;93588.06;2060753;28;20612;-73
2024/03/27 09:22:39;;;;;;;11.00;3.73;;;;;;;13.65;66.63;93592.34;2063281;28;20235;-73
2024/03/27 09:23:39;;;;;;;7.80;3.25;;;;;;;13.49;67.04;93587.91;2058503;28;20210;-73
2024/03/27 09:24:40;;;;;;;8.60;3.60;;;;;;;13.59;66.53;93580.72;2058313;28;20195;-73
2024/03/27 09:25:40;;;;;;;8.53;4.00;;;;;;;13.81;65.93;93591.56;2068176;28;20202;-73
2024/03/27 09:26:41;;;;;;;7.50;3.73;;;;;;;14.04;65.40;93589.94;2059192;28;20199;-73
2024/03/27 09:27:41;;;;;;;8.23;4.17;;;;;;;14.33;65.60;93596.44;2063139;28;20650;-73
2024/03/27 09:28:42;;;;;;;10.70;4.30;;;;;;;14.75;63.75;93586.72;2066755;28;20222;-73
2024/03/27 09:29:42;;;;;;;9.87;3.67;;;;;;;14.49;64.11;93603.50;2056068;28;20582;-73
2024/03/27 09:30:43;;;;;;;10.73;4.00;;;;;;;14.72;63.47;93602.81;2054509;28;20221;-73
2024/03/27 09:31:43;;;;;;;8.80;4.47;;;;;;;14.82;63.05;93605.28;2062670;28;20547;-73
2024/03/27 09:32:43;;;;;;;10.27;3.57;;;;;;;15.13;62.15;93607.94;2072882;28;20277;-73
2024/03/27 09:33:44;;;;;;;10.10;4.47;;;;;;;14.68;62.93;93614.66;2077518;28;20760;-73
2024/03/27 09:34:48;;;;;;;12.50;4.70;;;;;;;14.69;63.33;93609.25;2067670;28;20209;-73
2024/03/27 09:35:50;;;;;;;6.82;3.10;;;;;;;14.25;63.95;93617.47;2060769;28;20206;-73
2024/03/27 09:36:51;;;;;;;12.38;3.78;;;;;;;14.48;64.66;93620.22;2068347;28;20232;-73
2024/03/27 09:37:52;;;;;;;6.17;3.30;;;;;;;13.93;64.80;93621.72;2063305;28;20226;-73
2024/03/27 09:38:53;;;;;;;13.85;4.00;;;;;;;13.99;64.82;93622.88;2060071;28;20600;-73
2024/03/27 09:39:59;;;;;;;6.25;3.35;;;;;;;13.78;65.21;93632.03;2050710;28;20211;-73
2024/03/27 09:41:01;;;;;;;6.43;4.10;;;;;;;13.74;65.38;93633.34;2045128;28;20286;-73
2024/03/27 09:42:02;;;;;;;9.70;4.53;;;;;;;13.67;65.60;93634.97;2059550;28;20211;-73
2024/03/27 09:43:04;;;;;;;6.33;3.50;;;;;;;13.43;66.06;93643.59;2053082;28;20225;-73
2024/03/27 09:44:07;;;;;;;5.63;3.67;;;;;;;13.68;65.85;93641.84;2056861;28;20452;-73
2024/03/27 09:45:09;;;;;;;7.07;3.00;;;;;;;14.06;65.12;93646.66;2059823;28;20265;-73
2024/03/27 09:46:10;;;;;;;10.98;3.80;;;;;;;13.90;66.15;93657.94;2058021;28;20214;-73
2024/03/27 09:47:12;;;;;;;8.20;3.73;;;;;;;13.71;66.41;93647.59;2060382;28;20285;-73
2024/03/27 09:48:13;;;;;;;6.53;3.60;;;;;;;13.93;66.44;93647.97;2066763;28;20546;-73
2024/03/27 09:49:16;;;;;;;8.77;3.57;;;;;;;14.10;66.37;93635.66;2068642;28;20230;-72
2024/03/27 09:50:16;;;;;;;6.18;4.45;;;;;;;14.18;66.09;93640.09;2065862;28;20454;-72
2024/03/27 09:51:17;;;;;;;8.77;4.40;;;;;;;13.99;66.25;93655.19;2060871;28;20276;-72
2024/03/27 09:52:18;;;;;;;10.93;4.47;;;;;;;14.10;66.04;93656.66;2062866;28;20210;-73
2024/03/27 09:53:20;;;;;;;6.80;4.20;;;;;;;14.17;65.35;93652.41;2064667;28;20221;-73
2024/03/27 09:54:28;;;;;;;7.95;3.80;;;;;;;13.91;66.03;93649.91;2066586;28;20221;-72
2024/03/27 09:55:33;;;;;;;8.95;4.13;;;;;;;13.69;66.40;93646.13;2062302;28;20222;-73
2024/03/27 09:56:37;;;;;;;13.95;4.07;;;;;;;13.14;68.66;93645.59;2060107;28;20704;-73
2024/03/27 09:57:39;;;;;;;8.98;3.70;;;;;;;13.14;68.78;93647.38;2065418;28;20561;-73
2024/03/27 09:58:39;;;;;;;10.05;4.00;;;;;;;12.94;69.84;93644.16;2072810;28;20208;-73
2024/03/27 09:59:40;;;;;;;7.53;3.40;;;;;;;12.64;70.83;93656.78;2066428;28;20218;-73
2024/03/27 10:00:41;;;;;;;12.63;4.63;;;;;;;12.58;70.97;93655.56;2066018;28;20229;-73
2024/03/27 10:01:42;;;;;;;5.75;3.30;;;;;;;12.68;70.69;93656.28;2067954;28;20201;-73
2024/03/27 10:02:42;;;;;;;10.07;4.80;;;;;;;12.80;69.97;93656.03;2065442;28;20210;-73
2024/03/27 10:03:43;;;;;;;7.30;4.70;;;;;;;13.42;68.71;93653.25;2065250;28;20221;-73
2024/03/27 10:04:44;;;;;;;8.83;3.97;;;;;;;14.69;66.36;93637.31;2071244;28;20224;-73
2024/03/27 10:05:47;;;;;;;11.30;6.90;;;;;;;14.32;65.97;93636.00;2071781;28;20507;-73
2024/03/27 10:06:47;;;;;;;12.68;5.47;;;;;;;13.63;67.79;93639.69;2066457;28;20210;-73
2024/03/27 10:07:48;;;;;;;8.90;5.20;;;;;;;13.67;67.99;93638.38;2075473;28;20205;-73
2024/03/27 10:08:48;;;;;;;16.60;10.30;;;;;;;14.02;66.86;93641.72;2068950;28;20602;-73
2024/03/27 10:09:49;;;;;;;10.10;7.03;;;;;;;14.10;66.94;93651.41;2065596;28;20285;-73
2024/03/27 10:10:50;;;;;;;9.93;4.40;;;;;;;14.24;66.57;93655.19;2071893;28;20217;-72
2024/03/27 10:11:51;;;;;;;9.05;4.03;;;;;;;13.78;67.44;93666.13;2076231;28;20200;-72
2024/03/27 10:12:53;;;;;;;10.17;4.50;;;;;;;13.60;68.00;93662.78;2076881;28;20573;-72
2024/03/27 10:13:53;;;;;;;8.77;4.57;;;;;;;13.66;68.28;93665.63;2066979;28;20212;-73
2024/03/27 10:14:54;;;;;;;17.37;5.07;;;;;;;13.81;67.86;93673.66;2068887;28;20652;-72
2024/03/27 10:15:54;;;;;;;12.77;4.03;;;;;;;13.65;67.91;93668.38;2068394;28;20226;-72
2024/03/27 10:16:55;;;;;;;11.47;4.00;;;;;;;13.95;68.04;93663.53;2067297;28;20252;-72
2024/03/27 10:17:55;;;;;;;7.53;4.17;;;;;;;14.09;67.36;93662.88;2062900;28;20732;-72
2024/03/27 10:18:56;;;;;;;8.40;4.20;;;;;;;13.82;67.77;93650.88;2065469;28;20218;-72
2024/03/27 10:19:56;;;;;;;12.77;4.57;;;;;;;13.58;68.04;93644.59;2076083;28;20802;-72
2024/03/27 10:20:57;;;;;;;11.77;4.30;;;;;;;13.79;68.03;93648.56;2069678;28;20413;-72
2024/03/27 10:21:58;;;;;;;10.40;4.30;;;;;;;13.77;68.08;93650.56;2060146;28;20202;-72
2024/03/27 10:22:58;;;;;;;12.00;4.43;;;;;;;13.59;68.21;93651.50;2067896;28;20226;-72
2024/03/27 10:24:00;;;;;;;9.43;5.00;;;;;;;13.03;69.86;93654.53;2069514;28;20276;-72
2024/03/27 10:25:05;;;;;;;10.13;4.50;;;;;;;13.21;70.09;93646.56;2071385;28;20206;-72
2024/03/27 10:26:05;;;;;;;11.63;4.28;;;;;;;13.83;68.57;93650.72;2066750;28;20483;-72
2024/03/27 10:27:07;;;;;;;7.10;4.40;;;;;;;13.57;68.86;93669.16;2065612;28;20629;-72
2024/03/27 10:28:09;;;;;;;6.32;4.60;;;;;;;12.93;70.67;93666.13;2066778;28;20237;-72
2024/03/27 10:29:10;;;;;;;7.35;4.30;;;;;;;12.69;71.27;93672.84;2060587;28;20206;-72
2024/03/27 10:30:11;;;;;;;7.30;4.43;;;;;;;12.74;71.69;93678.44;2058339;28;20218;-72
2024/03/27 10:31:12;;;;;;;8.00;4.78;;;;;;;12.30;72.68;93683.69;2073587;28;20518;-72
2024/03/27 10:32:12;;;;;;;8.40;3.70;;;;;;;11.66;74.26;93675.88;2067204;28;20213;-72
2024/03/27 10:33:13;;;;;;;7.23;4.30;;;;;;;11.36;76.04;93673.41;2063266;28;20218;-72
2024/03/27 10:34:13;;;;;;;6.60;4.07;;;;;;;11.10;77.36;93681.13;2057705;28;20557;-72
2024/03/27 10:35:14;;;;;;;11.70;4.50;;;;;;;10.93;78.24;93680.06;2067421;28;20647;-72
2024/03/27 10:36:25;;;;;;;13.68;4.68;;;;;;;10.88;78.55;93682.28;2074484;28;20598;-72
2024/03/27 10:37:26;;;;;;;14.63;5.03;;;;;;;10.47;79.59;93679.13;2068790;28;20200;-72
2024/03/27 10:38:28;;;;;;;12.57;5.03;;;;;;;10.39;80.36;93691.06;2071415;28;20213;-72
2024/03/27 10:39:31;;;;;;;7.18;4.30;;;;;;;10.22;80.52;93705.59;2075857;28;20807;-72
2024/03/27 10:40:36;;;;;;;8.13;5.43;;;;;;;10.00;81.81;93709.28;2078196;28;20260;-72
2024/03/27 10:41:36;;;;;;;7.28;4.50;;;;;;;10.05;82.23;93716.72;2068944;28;20290;-71
2024/03/27 10:42:40;;;;;;;12.30;4.73;;;;;;;10.20;82.06;93710.13;2072976;28;20222;-71
2024/03/27 10:43:47;;;;;;;7.38;4.82;;;;;;;10.07;81.79;93714.81;2077290;28;20202;-72
2024/03/27 10:44:49;;;;;;;8.20;5.35;;;;;;;10.16;82.07;93713.97;2062916;28;20205;-72
2024/03/27 10:45:52;;;;;;;9.45;4.95;;;;;;;10.03;82.84;93716.03;2067492;28;20251;-72
2024/03/27 10:46:53;;;;;;;7.50;4.60;;;;;;;10.07;82.70;93712.19;2065773;28;20211;-72
2024/03/27 10:47:54;;;;;;;8.02;4.78;;;;;;;10.00;82.77;93711.91;2064690;28;20636;-72
2024/03/27 10:48:55;;;;;;;9.40;4.25;;;;;;;9.90;82.85;93714.53;2054019;28;20580;-72
2024/03/27 10:49:57;;;;;;;7.60;5.10;;;;;;;9.88;83.00;93700.78;2061686;28;20219;-72
2024/03/27 10:50:58;;;;;;;9.40;5.05;;;;;;;9.96;82.83;93706.13;2062468;28;20561;-72
2024/03/27 10:52:03;;;;;;;10.57;5.50;;;;;;;9.99;82.44;93697.22;2063067;28;20210;-72
2024/03/27 10:53:11;;;;;;;8.00;4.55;;;;;;;10.13;82.04;93704.66;2061548;28;20229;-72
2024/03/27 10:54:14;;;;;;;11.27;6.07;;;;;;;10.30;81.92;93708.34;2078260;28;20251;-72
2024/03/27 10:55:14;;;;;;;11.85;5.97;;;;;;;10.04;82.26;93715.88;2068797;28;20201;-72
2024/03/27 10:56:17;;;;;;;7.90;5.23;;;;;;;10.04;82.41;93710.66;2076212;28;20258;-72
2024/03/27 10:57:20;;;;;;;8.00;5.10;;;;;;;9.88;82.96;93721.66;2067635;28;20217;-72
2024/03/27 10:58:21;;;;;;;8.05;4.63;;;;;;;9.62;83.41;93719.56;2065888;28;20219;-72
2024/03/27 10:59:23;;;;;;;8.02;5.22;;;;;;;9.52;83.67;93718.69;2065201;28;20232;-71
2024/03/27 11:00:24;;;;;;;7.32;4.82;;;;;;;9.17;85.29;93713.91;2075315;28;20220;-72
2024/03/27 11:01:25;;;;;;;21.30;5.70;;;;;;;9.36;85.65;93720.97;2074240;28;20201;-72
2024/03/27 11:02:25;;;;;;;8.63;5.10;;;;;;;9.26;85.25;93713.97;2068080;28;20210;-72
2024/03/27 11:03:27;;;;;;;7.80;4.87;;;;;;;9.15;85.70;93719.28;2062011;28;20229;-71
2024/03/27 11:04:30;;;;;;;8.48;4.80;;;;;;;8.82;86.31;93723.78;2059239;28;20575;-72
2024/03/27 11:05:31;;;;;;;10.65;5.90;;;;;;;8.67;86.92;93741.50;2065716;28;20690;-71
2024/03/27 11:10:47;;;;;;;13.65;5.60;;;;;;;8.83;86.38;93754.06;2084892;28;20573;-72
2024/03/27 11:16:59;;;;;;;7.95;4.85;;;;;;;8.18;88.55;93770.56;2084291;28;20554;-71
2024/03/27 11:21:18;;;;;;;6.10;3.60;;;;;;;8.20;87.96;93772.22;2085719;28;20567;-71
2024/03/27 11:25:24;;;;;;;4.82;2.65;;;;;;;8.39;86.79;93776.72;2089180;28;21257;-71
2024/03/27 11:28:53;;;;;;;4.20;2.22;;;;;;;8.47;85.69;93782.19;2083595;28;21083;-71
2024/03/27 11:29:58;;;;;;;4.72;2.38;;;;;;;8.58;85.06;93786.47;2087554;28;20814;-71
2024/03/27 11:30:59;;;;;;;5.70;2.15;;;;;;;8.59;85.15;93790.75;2079498;28;20838;-71
2024/03/27 11:32:01;;;;;;;4.43;2.40;;;;;;;8.53;84.85;93786.03;2069795;28;20209;-72
2024/03/27 11:33:02;;;;;;;5.47;3.20;;;;;;;8.70;84.31;93795.03;2072722;28;20711;-71
2024/03/27 11:34:03;;;;;;;3.30;1.40;;;;;;;8.72;83.28;93790.56;2069857;28;20205;-72
2024/03/27 11:35:05;;;;;;;3.73;1.97;;;;;;;8.75;82.98;93791.13;2070898;28;20242;-72
2024/03/27 11:36:06;;;;;;;3.83;1.58;;;;;;;8.81;82.37;93808.84;2076038;28;20824;-72
2024/03/27 11:37:07;;;;;;;3.50;1.40;;;;;;;8.88;82.41;93800.53;2074613;28;20282;-72
2024/03/27 11:38:08;;;;;;;4.63;1.52;;;;;;;9.17;81.88;93800.69;2073603;28;20463;-72
2024/03/27 11:39:09;;;;;;;2.83;1.20;;;;;;;9.63;80.27;93801.94;2070754;28;20210;-72
2024/03/27 11:40:10;;;;;;;2.47;1.30;;;;;;;9.99;79.03;93796.28;2065353;28;20470;-72
2024/03/27 11:41:11;;;;;;;2.45;1.30;;;;;;;10.38;77.50;93792.94;2070664;28;20276;-65
2024/03/27 11:42:12;;;;;;;4.90;1.33;;;;;;;10.81;76.05;93788.25;2070312;28;20202;-65
2024/03/27 11:43:12;;;;;;;1.93;1.00;;;;;;;10.80;75.08;93786.59;2071027;28;20459;-65
2024/03/27 11:44:14;;;;;;;2.90;0.93;;;;;;;10.41;74.46;93788.28;2069993;28;20473;-65
2024/03/27 11:45:14;;;;;;;4.68;0.90;;;;;;;10.51;74.53;93779.63;2070976;28;20202;-65
2024/03/27 11:46:15;;;;;;;1.50;0.80;;;;;;;10.73;74.28;93800.19;2077504;28;20209;-65
2024/03/27 11:47:16;;;;;;;2.30;0.90;;;;;;;10.57;73.87;93800.75;2069505;28;20212;-65
2024/03/27 11:48:20;;;;;;;2.50;0.80;;;;;;;10.82;73.67;93802.94;2075277;28;20229;-65
2024/03/27 11:49:20;;;;;;;1.70;0.80;;;;;;;10.71;73.47;93804.72;2076865;28;20212;-65
2024/03/27 11:50:22;;;;;;;2.17;0.73;;;;;;;10.47;73.74;93807.75;2075897;28;20225;-65
2024/03/27 11:51:23;;;;;;;4.05;1.00;;;;;;;11.21;73.37;93808.91;2069346;28;20214;-65
2024/03/27 11:52:25;;;;;;;2.47;0.90;;;;;;;11.34;72.77;93811.22;2063447;28;20206;-65
2024/03/27 11:53:25;;;;;;;2.10;1.00;;;;;;;11.22;72.80;93813.19;2062468;28;20713;-66
2024/03/27 11:54:28;;;;;;;1.83;0.90;;;;;;;11.15;73.05;93816.47;2071680;28;20793;-64
2024/03/27 11:55:29;;;;;;;1.50;0.80;;;;;;;11.26;72.64;93816.31;2070522;28;20217;-65
2024/03/27 11:56:31;;;;;;;2.27;0.90;;;;;;;11.17;73.36;93809.34;2069570;28;20231;-63
2024/03/27 11:57:31;;;;;;;6.38;2.00;;;;;;;10.66;73.73;93811.34;2069374;28;20221;-64
2024/03/27 11:58:32;;;;;;;12.73;7.27;;;;;;;10.20;74.57;93824.88;2075899;28;20228;-63
2024/03/27 11:59:33;;;;;;;3.80;1.87;;;;;;;10.09;74.89;93822.38;2077457;28;20261;-63
2024/03/27 12:00:33;;;;;;;5.50;2.73;;;;;;;10.28;75.00;93822.41;2077552;28;20275;-62
2024/03/27 12:01:35;;;;;;;4.00;1.60;;;;;;;10.39;74.02;93825.88;2077177;28;20347;-64
2024/03/27 12:02:36;;;;;;;3.50;0.98;;;;;;;10.52;73.67;93823.81;2070396;28;20269;-64
2024/03/27 12:03:38;;;;;;;1.40;0.80;;;;;;;10.67;73.34;93826.84;2069081;28;20272;-64
2024/03/27 12:04:39;;;;;;;2.42;0.80;;;;;;;10.54;73.45;93832.34;2079052;28;20197;-64
2024/03/27 12:05:44;;;;;;;1.95;1.02;;;;;;;10.40;73.46;93820.53;2070378;28;20260;-64
2024/03/27 12:06:44;;;;;;;3.75;1.00;;;;;;;10.21;74.17;93820.47;2069191;28;20279;-63
2024/03/27 12:07:45;;;;;;;1.93;1.00;;;;;;;10.06;74.66;93823.47;2058241;28;20215;-63
2024/03/27 12:08:48;;;;;;;4.00;1.17;;;;;;;10.20;74.95;93831.88;2077412;28;20320;-65
2024/03/27 12:09:50;;;;;;;2.00;1.00;;;;;;;10.39;74.38;93823.28;2068955;28;20207;-65
2024/03/27 12:10:50;;;;;;;1.60;0.90;;;;;;;10.73;73.68;93817.66;2068816;28;20410;-64
2024/03/27 12:11:51;;;;;;;1.73;0.77;;;;;;;11.16;72.65;93813.75;2061927;28;20668;-64
2024/03/27 12:12:51;;;;;;;4.33;0.80;;;;;;;11.03;72.11;93811.41;2068541;28;20343;-64
2024/03/27 12:13:52;;;;;;;1.73;0.87;;;;;;;11.03;72.74;93816.63;2079203;28;20447;-65
2024/03/27 12:14:54;;;;;;;2.63;0.80;;;;;;;10.98;71.70;93815.41;2069484;28;20213;-65
2024/03/27 12:15:55;;;;;;;1.77;0.80;;;;;;;11.01;71.99;93815.13;2079606;28;20255;-65
2024/03/27 12:16:55;;;;;;;1.67;0.90;;;;;;;11.03;72.37;93815.81;2072824;28;20206;-64
2024/03/27 12:18:00;;;;;;;1.37;0.80;;;;;;;11.18;71.80;93813.59;2078095;28;20227;-64
2024/03/27 12:19:00;;;;;;;1.65;0.80;;;;;;;11.26;71.29;93822.38;2077359;28;20222;-64
2024/03/27 12:20:03;;;;;;;1.73;0.90;;;;;;;11.12;71.44;93820.19;2067196;28;20803;-64
2024/03/27 12:21:24;;;;;;;14.07;1.00;;;;;;;10.90;71.60;93822.16;2065594;28;20212;-64
2024/03/27 12:22:25;;;;;;;2.35;0.90;;;;;;;10.54;71.87;93821.06;2076306;28;20264;-64
2024/03/27 12:23:26;;;;;;;2.30;1.17;;;;;;;10.20;72.62;93826.66;2079536;28;20227;-64
2024/03/27 12:24:26;;;;;;;2.13;0.80;;;;;;;10.26;72.69;93823.53;2079978;28;20494;-65
2024/03/27 12:25:33;;;;;;;5.77;1.00;;;;;;;10.14;72.49;93820.19;2071529;28;20567;-65
2024/03/27 12:26:37;;;;;;;4.68;1.20;;;;;;;10.16;72.96;93817.44;2078110;28;20215;-64
2024/03/27 12:27:38;;;;;;;1.77;0.95;;;;;;;10.29;72.88;93818.81;2077750;28;20272;-64
2024/03/27 12:28:40;;;;;;;4.23;1.00;;;;;;;10.47;71.91;93814.78;2069753;28;20319;-63
2024/03/27 12:29:41;;;;;;;3.90;1.27;;;;;;;10.93;71.06;93814.06;2077456;28;20231;-64
2024/03/27 12:30:43;;;;;;;6.03;1.13;;;;;;;11.44;69.64;93805.97;2070304;28;20214;-65
2024/03/27 12:31:49;;;;;;;2.53;1.13;;;;;;;11.21;69.64;93811.53;2062365;28;20221;-64
2024/03/27 12:32:49;;;;;;;1.80;1.00;;;;;;;10.99;69.95;93817.06;2060247;28;20702;-65
2024/03/27 12:33:50;;;;;;;2.67;1.00;;;;;;;10.94;70.78;93818.31;2064193;28;20872;-64
2024/03/27 12:34:51;;;;;;;2.13;1.03;;;;;;;11.02;70.93;93814.16;2070277;28;20287;-64
2024/03/27 12:35:51;;;;;;;2.03;1.00;;;;;;;10.66;71.63;93819.97;2070399;28;20478;-64
2024/03/27 12:36:52;;;;;;;2.90;1.00;;;;;;;10.76;71.50;93815.56;2069824;28;20251;-64
2024/03/27 12:37:54;;;;;;;2.10;0.90;;;;;;;10.51;71.35;93824.78;2068806;28;20213;-64
2024/03/27 12:38:54;;;;;;;3.15;0.77;;;;;;;10.33;71.31;93808.94;2070395;28;20239;-64
2024/03/27 12:39:55;;;;;;;6.90;1.00;;;;;;;10.22;72.31;93833.38;2065326;28;20215;-64
2024/03/27 12:40:56;;;;;;;2.07;0.90;;;;;;;10.10;73.26;93837.88;2063862;28;20247;-65
2024/03/27 12:42:05;;;;;;;2.73;1.00;;;;;;;10.11;72.83;93841.31;2064530;28;20579;-64
2024/03/27 12:43:06;;;;;;;1.35;0.70;;;;;;;9.99;72.62;93829.34;2059012;28;20809;-64
2024/03/27 12:44:07;;;;;;;2.17;0.80;;;;;;;10.00;73.20;93831.00;2064338;28;20261;-65
2024/03/27 12:45:07;;;;;;;1.63;0.83;;;;;;;9.89;73.17;93832.78;2065110;28;20220;-64
2024/03/27 12:46:08;;;;;;;1.70;0.80;;;;;;;9.91;73.50;93824.81;2063987;28;20265;-65
2024/03/27 12:47:08;;;;;;;2.53;0.80;;;;;;;9.97;73.38;93825.09;2073254;28;20198;-65
2024/03/27 12:48:19;;;;;;;2.00;0.80;;;;;;;9.78;73.54;93823.25;2063004;28;20223;-64
2024/03/27 12:49:20;;;;;;;2.22;1.00;;;;;;;9.92;73.27;93821.25;2058522;28;20214;-64
2024/03/27 12:50:21;;;;;;;1.50;0.73;;;;;;;10.01;73.14;93820.44;2072074;28;20241;-64
2024/03/27 12:51:22;;;;;;;1.67;0.87;;;;;;;10.22;72.27;93807.31;2064989;28;20460;-65
2024/03/27 12:52:24;;;;;;;1.50;0.80;;;;;;;10.05;72.61;93840.06;2063963;28;20213;-65
2024/03/27 12:53:24;;;;;;;2.78;1.27;;;;;;;10.15;72.39;93845.31;2064108;28;20237;-64
2024/03/27 12:54:25;;;;;;;1.87;0.93;;;;;;;10.21;72.29;93842.16;2075750;28;20210;-64
2024/03/27 12:55:26;;;;;;;1.40;0.60;;;;;;;10.20;72.54;93840.50;2075501;28;20205;-64
2024/03/27 12:56:27;;;;;;;1.52;0.90;;;;;;;10.51;72.41;93840.44;2069019;28;20206;-65
2024/03/27 12:57:28;;;;;;;1.63;0.80;;;;;;;10.63;72.00;93843.75;2062017;28;20760;-65
2024/03/27 12:58:29;;;;;;;3.67;1.02;;;;;;;10.74;71.25;93834.94;2063076;28;20232;-65
2024/03/27 12:59:29;;;;;;;1.57;0.83;;;;;;;10.48;71.37;93842.50;2063288;28;20229;-65
2024/03/27 13:00:30;;;;;;;4.30;0.83;;;;;;;10.40;72.03;93857.06;2065760;28;20250;-63
2024/03/27 13:01:31;;;;;;;4.10;1.00;;;;;;;10.70;71.62;93844.81;2065030;28;20220;-64
2024/03/27 13:02:31;;;;;;;5.53;2.80;;;;;;;10.36;72.07;93852.22;2065449;28;20498;-64